My Meet Scores
Carolina Dervis, Phenom Gymnastics - MyMeetScores.com
Top100 | Top Teams | Upcoming Meets | Completed Meets | Latest | Add Scores | Help| Support | Bookmark and Share

Carolina Dervis, Phenom Gymnastics
Personal Bests
LevelVault BarsBeamFloorAA
29.2509.450 8.8759.10036.425
39.8009.700 9.6509.75038.650
49.5009.650 9.8509.62538.425
Scores on America's Top 100as of 07.06.2020
Year Level Vault Bars Beam Floor AA
2020 49.85038.425

Click here to view our exclusive Top 100 Collection
Meet Scores
Date Meet Team Session Level Division Vault Bars Beam Floor AA
2020-03-06 Illinois Level 4 State Championships Phenom Gymnastics 7 4 Sr F 9.300 3 9.650 1 9.850 1 9.625 1 38.425 1
2020-02-21 Kinetic Classic Phenom Gymnastics 07 4 Older 9.100 13T 9.575 8 9.050 16 9.350 10 37.075 10
2020-01-31 Big Chill Phenom Gymnastics 2 4 11+ 9.500 1 9.150 4 9.675 1T 9.150 3 37.475 1
2020-01-17 2020 Bravo Classic Phenom Gymnastics 10B 4 Sr 8.900 3 9.050 9 9.100 8 9.050 8 36.100 6T
2019-12-20 Aspire Classic - 2019 Phenom Gymnastics 8A 4 Older 9.050 2T 9.250 5T 9.625 2 9.125 7 37.050 3T
2019-12-13 MEGA Magic Classic 2019 Phenom Gymnastics 3B 4 Sr B 8.950 5 9.250 3 9.300 2 9.275 3 36.775 3
2019-03-22 Illinois Gymnastics State Championships Phenom Gymnastics 10 4 Sr E 9.450 2 9.225 10 9.175 12T 9.525 3 37.375 8
2019-03-01 NGCD Academy's 2019 Flip'r Invitational Phenom Gymnastics 10 4 Jr B 9.275 3 8.850 9 9.525 1 9.425 2 37.075 2
2019-02-15 Big ClassicBIG CLASSIC Phenom Gymnastics 2A 4 Child E 8.625 5 8.900 5 8.775 7 9.225 1 35.525 3
2019-01-25 King Arthur Invitational Phenom Gymnastics 1 4 Sr C 8.675 4 8.650 10 8.650 6T 8.950 5T 34.925 4
2019-01-18 2019 Bravo Classic Phenom Gymnastics 4B 4 Sr 8.725 14 8.000 17 9.250 2 9.050 9 35.025 8
2018-12-14 2018 Aspire Classic Phenom Gymnastics 5A 4 Older 8.850 10T 8.450 16 9.450 1T 8.975 12T 35.725 12
2018-12-07 2018 MEGA Magic Classic Phenom Gymnastics A2 4 Sr B 8.725 13T 8.600 14T 9.175 2 9.125 6 35.625 8
2018-05-03 Illinois USA Gymnastics Level 3 State Championships Phenom Gymnastics 6 3 Sr E 9.625 6T 9.625 3 9.650 1T 9.750 1 38.650 1
2018-03-02 2018 Flip'r Invitational Phenom Gymnastics 7 3 Sr Age 10 & up 9.600 3 9.450 5 9.625 1 9.350 3 38.025 2
2018-01-19 2018 Bravo Classic Phenom Gymnastics 8B 3 Sr 9.725 2 9.700 1 9.450 4 9.475 1T 38.350 1
2017-12-15 2017 Aspire Classic Phenom Gymnastics 11A 3 Older 9.800 3 9.400 14 9.150 8T 9.750 3 38.100 3
2017-12-08 Horton Invite At IWU Shirk Center Phenom Gymnastics All 3 Sr B 9.500 3T 9.225 3 9.375 1 9.300 2T 37.400 1
2017-11-16 Paul Hamm Thanksgiving Classic - Women Phenom Gymnastics 5 3 Older 9.500 5T 9.300 7 9.250 5T 9.350 4 37.400 5
2017-10-28 Twist N Turn Phenom Gymnastics 1 3 All Ages 9.600 5 8.725 9 9.275 9 9.000 14T 36.600 7T
2017-02-04 Midwest Games Phenom Gymnastics 1 2 Senior 9.250 1 9.300 1 8.450 9 9.025 2 36.025 3
2017-01-20 2017 Bravo Classic Phenom Gymnastics 09B 2 9+yrs 9.150 3 9.350 3 8.825 7 9.100 2 36.425 3
2016-12-15 2016 Hawaiian Pineapple Sanction Phenom Gymnastics 5A 2 Ages 9+ 8.950 2 9.450 2 8.875 6 9.100 5 36.375 2
Get your scores on
a t-shirt, pin, or hoodie

www.lazysuits.com